Crews, Texas
Current Conditions -  °F | °C
As of 6:58 AM on Wednesday 22 Oct 2014 (Local Time) from KDYS Reporting Station
Overcast Overcast  
Wind Chill: 18°   Ceiling: 11000
Heat Index: 18°   Visibility: 10mi
Dew Point: 10°   Wind: 8mph
Humidity: 62%   Direction: 150°SSE
Pressure: 30.09"   Gusts: NA
Location:  31.975°N, 99.9034°W
Report Text: KDYS 221158Z AUTO 15007KT 10SM SCT075 OVC110 18/10 A3009 RMK AO2 SLP156 T01760103 10188 20170 52009
Loading
Personal Weather Stations






























Interactive Weather Map
Tropical Storm Tracking
New forecast layout! Learn more

10-Day Weather Forecast

Advertisements
Track Severe Weather on mobile